sensor_id;sensor_type;location;lat;lon;timestamp;temperature;humidity
13231;DHT22;6681;53.254;10.398;2023-03-01T00:01:10;-0.90;99.90
13231;DHT22;6681;53.254;10.398;2023-03-01T00:03:36;-0.90;99.90
13231;DHT22;6681;53.254;10.398;2023-03-01T00:06:03;-0.80;99.90
13231;DHT22;6681;53.254;10.398;2023-03-01T00:08:29;-0.90;99.90
13231;DHT22;6681;53.254;10.398;2023-03-01T00:13:31;-0.90;99.90
13231;DHT22;6681;53.254;10.398;2023-03-01T00:15:57;1.30;99.90
13231;DHT22;6681;53.254;10.398;2023-03-01T00:18:26;-0.90;99.90
13231;DHT22;6681;53.254;10.398;2023-03-01T00:20:53;-0.80;99.90
13231;DHT22;6681;53.254;10.398;2023-03-01T00:23:20;-0.90;99.90
13231;DHT22;6681;53.254;10.398;2023-03-01T00:25:45;-0.90;99.90
13231;DHT22;6681;53.254;10.398;2023-03-01T00:28:11;-1.00;99.90
13231;DHT22;6681;53.254;10.398;2023-03-01T00:30:37;-1.00;99.90
13231;DHT22;6681;53.254;10.398;2023-03-01T00:33:02;-1.00;99.90
13231;DHT22;6681;53.254;10.398;2023-03-01T00:35:28;-1.00;99.90
13231;DHT22;6681;53.254;10.398;2023-03-01T00:37:54;-1.00;99.90
13231;DHT22;6681;53.254;10.398;2023-03-01T00:40:24;-1.00;99.90
13231;DHT22;6681;53.254;10.398;2023-03-01T00:42:50;-1.00;99.90
13231;DHT22;6681;53.254;10.398;2023-03-01T00:45:18;-1.00;99.90
13231;DHT22;6681;53.254;10.398;2023-03-01T00:47:44;-1.10;99.90
13231;DHT22;6681;53.254;10.398;2023-03-01T00:50:10;-1.00;99.90
13231;DHT22;6681;53.254;10.398;2023-03-01T00:52:36;-1.00;99.90
13231;DHT22;6681;53.254;10.398;2023-03-01T00:55:02;-1.00;99.90
13231;DHT22;6681;53.254;10.398;2023-03-01T00:57:28;-1.00;99.90
13231;DHT22;6681;53.254;10.398;2023-03-01T00:59:54;-1.10;99.90
13231;DHT22;6681;53.254;10.398;2023-03-01T01:02:20;0.50;99.90
13231;DHT22;6681;53.254;10.398;2023-03-01T01:04:47;-1.20;99.90
13231;DHT22;6681;53.254;10.398;2023-03-01T01:07:13;-1.20;99.90
13231;DHT22;6681;53.254;10.398;2023-03-01T01:09:39;-0.20;99.90
13231;DHT22;6681;53.254;10.398;2023-03-01T01:12:05;-1.30;99.90
13231;DHT22;6681;53.254;10.398;2023-03-01T01:14:31;-1.40;99.90
13231;DHT22;6681;53.254;10.398;2023-03-01T01:16:57;-1.40;99.90
13231;DHT22;6681;53.254;10.398;2023-03-01T01:19:23;-1.40;99.90
13231;DHT22;6681;53.254;10.398;2023-03-01T01:21:49;-1.40;99.90
13231;DHT22;6681;53.254;10.398;2023-03-01T01:24:15;-1.40;99.90
13231;DHT22;6681;53.254;10.398;2023-03-01T01:26:42;-1.40;99.90
13231;DHT22;6681;53.254;10.398;2023-03-01T01:29:08;-1.30;99.90
13231;DHT22;6681;53.254;10.398;2023-03-01T01:31:35;-1.30;99.90
13231;DHT22;6681;53.254;10.398;2023-03-01T01:34:02;-1.30;99.90
13231;DHT22;6681;53.254;10.398;2023-03-01T01:36:29;-1.30;99.90
13231;DHT22;6681;53.254;10.398;2023-03-01T01:38:55;-1.30;99.90
13231;DHT22;6681;53.254;10.398;2023-03-01T01:41:22;-1.30;99.90
13231;DHT22;6681;53.254;10.398;2023-03-01T01:44:12;-1.30;99.90
13231;DHT22;6681;53.254;10.398;2023-03-01T01:46:49;-1.30;99.90
13231;DHT22;6681;53.254;10.398;2023-03-01T01:52:25;-1.30;99.90
13231;DHT22;6681;53.254;10.398;2023-03-01T01:55:15;-1.40;99.90
13231;DHT22;6681;53.254;10.398;2023-03-01T01:57:48;-1.50;99.90
13231;DHT22;6681;53.254;10.398;2023-03-01T02:00:21;-1.60;99.90
13231;DHT22;6681;53.254;10.398;2023-03-01T02:02:49;-1.60;99.90
13231;DHT22;6681;53.254;10.398;2023-03-01T02:07:48;-1.70;99.90
13231;DHT22;6681;53.254;10.398;2023-03-01T02:10:15;-1.70;99.90
13231;DHT22;6681;53.254;10.398;2023-03-01T02:12:41;-1.60;99.90
13231;DHT22;6681;53.254;10.398;2023-03-01T02:15:08;-1.60;99.90
13231;DHT22;6681;53.254;10.398;2023-03-01T02:17:34;-1.60;99.90
13231;DHT22;6681;53.254;10.398;2023-03-01T02:20:13;-1.60;99.90
13231;DHT22;6681;53.254;10.398;2023-03-01T02:22:43;-1.70;99.90
13231;DHT22;6681;53.254;10.398;2023-03-01T02:30:45;-1.80;99.90
13231;DHT22;6681;53.254;10.398;2023-03-01T02:33:32;-1.80;99.90
13231;DHT22;6681;53.254;10.398;2023-03-01T02:36:06;-0.60;99.90
13231;DHT22;6681;53.254;10.398;2023-03-01T02:38:33;-1.80;99.90
13231;DHT22;6681;53.254;10.398;2023-03-01T02:40:59;-1.80;99.90
13231;DHT22;6681;53.254;10.398;2023-03-01T02:43:30;-1.80;99.90
13231;DHT22;6681;53.254;10.398;2023-03-01T02:46:03;-1.70;99.90
13231;DHT22;6681;53.254;10.398;2023-03-01T02:48:48;-1.70;99.90
13231;DHT22;6681;53.254;10.398;2023-03-01T02:54:30;-1.80;99.90
13231;DHT22;6681;53.254;10.398;2023-03-01T02:56:57;-1.80;99.90
13231;DHT22;6681;53.254;10.398;2023-03-01T02:59:27;-1.80;99.90
13231;DHT22;6681;53.254;10.398;2023-03-01T03:01:54;-1.80;99.90
13231;DHT22;6681;53.254;10.398;2023-03-01T03:04:19;-1.80;99.90
13231;DHT22;6681;53.254;10.398;2023-03-01T03:06:48;-1.80;99.90
13231;DHT22;6681;53.254;10.398;2023-03-01T03:09:14;-1.80;99.90
13231;DHT22;6681;53.254;10.398;2023-03-01T03:11:40;-1.80;99.90
13231;DHT22;6681;53.254;10.398;2023-03-01T03:14:11;-1.80;99.90
13231;DHT22;6681;53.254;10.398;2023-03-01T03:16:43;-1.80;99.90
13231;DHT22;6681;53.254;10.398;2023-03-01T03:19:10;-1.80;99.90
13231;DHT22;6681;53.254;10.398;2023-03-01T03:21:36;-1.80;99.90
13231;DHT22;6681;53.254;10.398;2023-03-01T03:24:03;-1.80;99.90
13231;DHT22;6681;53.254;10.398;2023-03-01T03:26:28;-1.80;99.90
13231;DHT22;6681;53.254;10.398;2023-03-01T03:28:54;-1.70;99.90
13231;DHT22;6681;53.254;10.398;2023-03-01T03:31:20;-1.60;99.90
13231;DHT22;6681;53.254;10.398;2023-03-01T03:33:46;-1.70;99.90
13231;DHT22;6681;53.254;10.398;2023-03-01T03:36:20;-1.70;99.90
13231;DHT22;6681;53.254;10.398;2023-03-01T03:38:47;-1.70;99.90
13231;DHT22;6681;53.254;10.398;2023-03-01T03:41:13;-1.70;99.90
13231;DHT22;6681;53.254;10.398;2023-03-01T03:43:39;-1.70;99.90
13231;DHT22;6681;53.254;10.398;2023-03-01T03:46:06;-1.70;99.90
13231;DHT22;6681;53.254;10.398;2023-03-01T03:48:43;-1.30;99.90
13231;DHT22;6681;53.254;10.398;2023-03-01T03:51:16;-1.80;99.90
13231;DHT22;6681;53.254;10.398;2023-03-01T03:53:43;-1.70;99.90
13231;DHT22;6681;53.254;10.398;2023-03-01T03:56:09;-1.80;99.90
13231;DHT22;6681;53.254;10.398;2023-03-01T03:58:35;-1.40;99.90
13231;DHT22;6681;53.254;10.398;2023-03-01T04:01:01;-1.80;99.90
13231;DHT22;6681;53.254;10.398;2023-03-01T04:03:29;-1.10;99.90
13231;DHT22;6681;53.254;10.398;2023-03-01T04:05:58;-1.80;99.90
13231;DHT22;6681;53.254;10.398;2023-03-01T04:08:24;-1.80;99.90
13231;DHT22;6681;53.254;10.398;2023-03-01T04:10:52;-1.80;99.90
13231;DHT22;6681;53.254;10.398;2023-03-01T04:13:20;-1.80;99.90
13231;DHT22;6681;53.254;10.398;2023-03-01T04:15:49;-1.70;99.90
13231;DHT22;6681;53.254;10.398;2023-03-01T04:18:16;-1.70;99.90
13231;DHT22;6681;53.254;10.398;2023-03-01T04:20:42;-1.70;99.90
13231;DHT22;6681;53.254;10.398;2023-03-01T04:23:13;-1.80;99.90
13231;DHT22;6681;53.254;10.398;2023-03-01T04:25:57;-1.80;99.90
13231;DHT22;6681;53.254;10.398;2023-03-01T04:28:25;-1.80;99.90
13231;DHT22;6681;53.254;10.398;2023-03-01T04:30:55;-1.90;99.90
13231;DHT22;6681;53.254;10.398;2023-03-01T04:33:22;-1.90;99.90
13231;DHT22;6681;53.254;10.398;2023-03-01T04:35:48;-1.90;99.90
13231;DHT22;6681;53.254;10.398;2023-03-01T04:38:18;-1.90;99.90
13231;DHT22;6681;53.254;10.398;2023-03-01T04:40:44;-2.00;99.90
13231;DHT22;6681;53.254;10.398;2023-03-01T04:43:12;-2.00;99.90
13231;DHT22;6681;53.254;10.398;2023-03-01T04:45:40;-2.00;99.90
13231;DHT22;6681;53.254;10.398;2023-03-01T04:48:06;-2.00;99.90
13231;DHT22;6681;53.254;10.398;2023-03-01T04:50:32;-2.00;99.90
13231;DHT22;6681;53.254;10.398;2023-03-01T04:52:58;-2.10;99.90
13231;DHT22;6681;53.254;10.398;2023-03-01T04:55:27;-2.10;99.90
13231;DHT22;6681;53.254;10.398;2023-03-01T04:57:54;-2.20;99.90
13231;DHT22;6681;53.254;10.398;2023-03-01T05:00:21;-2.20;99.90
13231;DHT22;6681;53.254;10.398;2023-03-01T05:05:14;-2.20;99.90
13231;DHT22;6681;53.254;10.398;2023-03-01T05:07:39;-2.10;99.90
13231;DHT22;6681;53.254;10.398;2023-03-01T05:10:05;-2.10;99.90
13231;DHT22;6681;53.254;10.398;2023-03-01T05:12:31;-2.10;99.90
13231;DHT22;6681;53.254;10.398;2023-03-01T05:14:56;-2.10;99.90
13231;DHT22;6681;53.254;10.398;2023-03-01T05:17:23;-2.20;99.90
13231;DHT22;6681;53.254;10.398;2023-03-01T05:19:49;-1.20;99.90
13231;DHT22;6681;53.254;10.398;2023-03-01T05:22:15;-2.00;99.90
13231;DHT22;6681;53.254;10.398;2023-03-01T05:24:41;-2.10;99.90
13231;DHT22;6681;53.254;10.398;2023-03-01T05:27:07;-1.80;99.90
13231;DHT22;6681;53.254;10.398;2023-03-01T05:29:33;-2.00;99.90
13231;DHT22;6681;53.254;10.398;2023-03-01T05:32:01;-2.00;99.90
13231;DHT22;6681;53.254;10.398;2023-03-01T05:34:30;-2.10;99.90
13231;DHT22;6681;53.254;10.398;2023-03-01T05:36:56;-0.70;99.90
13231;DHT22;6681;53.254;10.398;2023-03-01T05:39:25;-2.10;99.90
13231;DHT22;6681;53.254;10.398;2023-03-01T05:41:59;-2.10;99.90
13231;DHT22;6681;53.254;10.398;2023-03-01T05:44:26;-0.30;99.90
13231;DHT22;6681;53.254;10.398;2023-03-01T05:46:52;-1.50;99.90
13231;DHT22;6681;53.254;10.398;2023-03-01T05:49:18;-0.40;99.90
13231;DHT22;6681;53.254;10.398;2023-03-01T05:51:49;-0.80;99.90
13231;DHT22;6681;53.254;10.398;2023-03-01T05:54:15;-2.20;99.90
13231;DHT22;6681;53.254;10.398;2023-03-01T05:56:40;-2.20;99.90
13231;DHT22;6681;53.254;10.398;2023-03-01T05:59:06;-2.20;99.90
13231;DHT22;6681;53.254;10.398;2023-03-01T06:01:32;-1.40;99.90
13231;DHT22;6681;53.254;10.398;2023-03-01T06:03:58;-2.20;99.90
13231;DHT22;6681;53.254;10.398;2023-03-01T06:06:24;-0.40;99.90
13231;DHT22;6681;53.254;10.398;2023-03-01T06:08:51;-2.10;99.90
13231;DHT22;6681;53.254;10.398;2023-03-01T06:11:16;-2.10;99.90
13231;DHT22;6681;53.254;10.398;2023-03-01T06:13:45;-2.10;99.90
13231;DHT22;6681;53.254;10.398;2023-03-01T06:16:12;-2.30;99.90
13231;DHT22;6681;53.254;10.398;2023-03-01T06:18:38;-0.50;99.90
13231;DHT22;6681;53.254;10.398;2023-03-01T06:21:04;-2.30;99.90
13231;DHT22;6681;53.254;10.398;2023-03-01T06:23:30;-2.20;99.90
13231;DHT22;6681;53.254;10.398;2023-03-01T06:25:56;-2.20;99.90
13231;DHT22;6681;53.254;10.398;2023-03-01T06:28:22;-2.20;99.90
13231;DHT22;6681;53.254;10.398;2023-03-01T06:30:48;-2.10;99.90
13231;DHT22;6681;53.254;10.398;2023-03-01T06:33:18;-2.10;99.90
13231;DHT22;6681;53.254;10.398;2023-03-01T06:35:46;-2.10;99.90
13231;DHT22;6681;53.254;10.398;2023-03-01T06:38:12;-1.60;99.90
13231;DHT22;6681;53.254;10.398;2023-03-01T06:40:40;0.30;99.90
13231;DHT22;6681;53.254;10.398;2023-03-01T06:43:06;-2.10;99.90
13231;DHT22;6681;53.254;10.398;2023-03-01T06:45:33;-2.10;99.90
13231;DHT22;6681;53.254;10.398;2023-03-01T06:48:06;-2.00;99.90
13231;DHT22;6681;53.254;10.398;2023-03-01T06:50:32;-1.90;99.90
13231;DHT22;6681;53.254;10.398;2023-03-01T06:52:58;-1.90;99.90
13231;DHT22;6681;53.254;10.398;2023-03-01T06:55:24;-1.90;99.90
13231;DHT22;6681;53.254;10.398;2023-03-01T06:57:57;-1.80;99.90
13231;DHT22;6681;53.254;10.398;2023-03-01T07:00:24;-0.70;99.90
13231;DHT22;6681;53.254;10.398;2023-03-01T07:02:50;-0.90;99.90
13231;DHT22;6681;53.254;10.398;2023-03-01T07:05:16;-0.60;99.90
13231;DHT22;6681;53.254;10.398;2023-03-01T07:07:41;-1.70;99.90
13231;DHT22;6681;53.254;10.398;2023-03-01T07:10:07;-1.70;99.90
13231;DHT22;6681;53.254;10.398;2023-03-01T07:12:33;-1.60;99.90
13231;DHT22;6681;53.254;10.398;2023-03-01T07:14:59;-1.60;99.90
13231;DHT22;6681;53.254;10.398;2023-03-01T07:17:24;-1.70;99.90
13231;DHT22;6681;53.254;10.398;2023-03-01T07:19:50;-1.60;99.90
13231;DHT22;6681;53.254;10.398;2023-03-01T07:22:16;-1.50;99.90
13231;DHT22;6681;53.254;10.398;2023-03-01T07:24:42;-0.70;99.90
13231;DHT22;6681;53.254;10.398;2023-03-01T07:27:08;0.30;99.90
13231;DHT22;6681;53.254;10.398;2023-03-01T07:29:33;-1.60;99.90
13231;DHT22;6681;53.254;10.398;2023-03-01T07:32:04;-1.40;99.90
13231;DHT22;6681;53.254;10.398;2023-03-01T07:34:30;-1.40;99.90
13231;DHT22;6681;53.254;10.398;2023-03-01T07:36:56;-1.30;99.90
13231;DHT22;6681;53.254;10.398;2023-03-01T07:39:28;-1.20;99.90
13231;DHT22;6681;53.254;10.398;2023-03-01T07:41:53;-1.20;99.90
13231;DHT22;6681;53.254;10.398;2023-03-01T07:44:19;-1.20;99.90
13231;DHT22;6681;53.254;10.398;2023-03-01T07:46:45;-1.10;99.90
13231;DHT22;6681;53.254;10.398;2023-03-01T07:49:10;-1.00;99.90
13231;DHT22;6681;53.254;10.398;2023-03-01T07:51:36;-1.00;99.90
13231;DHT22;6681;53.254;10.398;2023-03-01T07:54:02;-0.90;99.90
13231;DHT22;6681;53.254;10.398;2023-03-01T07:56:29;-0.90;99.90
13231;DHT22;6681;53.254;10.398;2023-03-01T07:58:55;-0.80;99.90
13231;DHT22;6681;53.254;10.398;2023-03-01T08:01:21;-0.70;99.90
13231;DHT22;6681;53.254;10.398;2023-03-01T08:03:47;1.00;99.90
13231;DHT22;6681;53.254;10.398;2023-03-01T08:06:16;-0.70;99.90
13231;DHT22;6681;53.254;10.398;2023-03-01T08:08:42;-0.60;99.90
13231;DHT22;6681;53.254;10.398;2023-03-01T08:11:11;0.00;99.90
13231;DHT22;6681;53.254;10.398;2023-03-01T08:13:36;-0.50;99.90
13231;DHT22;6681;53.254;10.398;2023-03-01T08:16:07;-1.40;99.90
13231;DHT22;6681;53.254;10.398;2023-03-01T08:18:33;-0.40;99.90
13231;DHT22;6681;53.254;10.398;2023-03-01T08:21:07;-0.40;99.90
13231;DHT22;6681;53.254;10.398;2023-03-01T08:23:34;-0.30;99.90
13231;DHT22;6681;53.254;10.398;2023-03-01T08:26:08;-0.30;99.90
13231;DHT22;6681;53.254;10.398;2023-03-01T08:28:34;-0.30;99.90
13231;DHT22;6681;53.254;10.398;2023-03-01T08:31:00;-0.20;99.90
13231;DHT22;6681;53.254;10.398;2023-03-01T08:33:26;-0.10;99.90
13231;DHT22;6681;53.254;10.398;2023-03-01T08:35:52;-0.10;99.90
13231;DHT22;6681;53.254;10.398;2023-03-01T08:38:17;-0.10;99.90
13231;DHT22;6681;53.254;10.398;2023-03-01T08:40:43;0.00;99.90
13231;DHT22;6681;53.254;10.398;2023-03-01T08:43:09;0.00;99.90
13231;DHT22;6681;53.254;10.398;2023-03-01T08:45:34;0.20;99.90
13231;DHT22;6681;53.254;10.398;2023-03-01T08:48:03;0.30;99.90
13231;DHT22;6681;53.254;10.398;2023-03-01T08:50:29;0.30;99.90
13231;DHT22;6681;53.254;10.398;2023-03-01T08:52:54;0.50;99.90
13231;DHT22;6681;53.254;10.398;2023-03-01T08:55:20;0.40;99.90
13231;DHT22;6681;53.254;10.398;2023-03-01T08:57:45;0.50;99.90
13231;DHT22;6681;53.254;10.398;2023-03-01T09:00:11;0.70;99.90
13231;DHT22;6681;53.254;10.398;2023-03-01T09:02:40;0.60;99.90
13231;DHT22;6681;53.254;10.398;2023-03-01T09:05:05;0.10;99.90
13231;DHT22;6681;53.254;10.398;2023-03-01T09:07:31;0.80;99.90
13231;DHT22;6681;53.254;10.398;2023-03-01T09:09:57;0.90;99.90
13231;DHT22;6681;53.254;10.398;2023-03-01T09:12:22;1.20;99.90
13231;DHT22;6681;53.254;10.398;2023-03-01T09:14:53;1.10;99.90
13231;DHT22;6681;53.254;10.398;2023-03-01T09:17:18;1.20;99.90
13231;DHT22;6681;53.254;10.398;2023-03-01T09:19:46;1.60;99.90
13231;DHT22;6681;53.254;10.398;2023-03-01T09:22:12;1.30;99.90
13231;DHT22;6681;53.254;10.398;2023-03-01T09:24:38;1.60;99.90
13231;DHT22;6681;53.254;10.398;2023-03-01T09:27:04;3.30;99.90
13231;DHT22;6681;53.254;10.398;2023-03-01T09:29:40;1.30;99.90
13231;DHT22;6681;53.254;10.398;2023-03-01T09:32:05;1.70;99.90
13231;DHT22;6681;53.254;10.398;2023-03-01T09:34:33;1.80;99.90
13231;DHT22;6681;53.254;10.398;2023-03-01T09:37:19;2.30;99.90
13231;DHT22;6681;53.254;10.398;2023-03-01T09:39:44;2.00;99.90
13231;DHT22;6681;53.254;10.398;2023-03-01T09:42:12;2.40;99.90
13231;DHT22;6681;53.254;10.398;2023-03-01T09:44:45;2.40;99.90
13231;DHT22;6681;53.254;10.398;2023-03-01T09:47:22;1.80;99.90
13231;DHT22;6681;53.254;10.398;2023-03-01T09:50:13;2.60;99.90
13231;DHT22;6681;53.254;10.398;2023-03-01T09:52:58;2.80;99.90
13231;DHT22;6681;53.254;10.398;2023-03-01T09:55:38;3.00;99.90
13231;DHT22;6681;53.254;10.398;2023-03-01T09:58:25;3.10;99.90
13231;DHT22;6681;53.254;10.398;2023-03-01T10:00:56;3.20;99.90
13231;DHT22;6681;53.254;10.398;2023-03-01T10:03:32;3.30;99.90
13231;DHT22;6681;53.254;10.398;2023-03-01T10:11:15;3.60;99.90
13231;DHT22;6681;53.254;10.398;2023-03-01T10:14:01;3.60;99.90
13231;DHT22;6681;53.254;10.398;2023-03-01T10:16:58;3.70;99.90
13231;DHT22;6681;53.254;10.398;2023-03-01T10:22:19;3.80;99.90
13231;DHT22;6681;53.254;10.398;2023-03-01T10:24:49;3.90;99.90
13231;DHT22;6681;53.254;10.398;2023-03-01T10:27:22;4.00;99.90
13231;DHT22;6681;53.254;10.398;2023-03-01T10:29:50;4.10;99.90
13231;DHT22;6681;53.254;10.398;2023-03-01T10:32:21;4.30;99.90
13231;DHT22;6681;53.254;10.398;2023-03-01T10:34:47;4.50;99.90
13231;DHT22;6681;53.254;10.398;2023-03-01T10:37:15;4.40;99.90
13231;DHT22;6681;53.254;10.398;2023-03-01T10:40:04;4.50;99.90
13231;DHT22;6681;53.254;10.398;2023-03-01T10:42:39;4.70;99.90
13231;DHT22;6681;53.254;10.398;2023-03-01T10:47:41;5.10;99.90
13231;DHT22;6681;53.254;10.398;2023-03-01T10:50:25;5.20;99.90
13231;DHT22;6681;53.254;10.398;2023-03-01T10:53:04;5.20;99.90
13231;DHT22;6681;53.254;10.398;2023-03-01T10:55:37;5.70;99.90
13231;DHT22;6681;53.254;10.398;2023-03-01T11:00:55;5.40;99.90
13231;DHT22;6681;53.254;10.398;2023-03-01T11:03:31;5.30;99.90
13231;DHT22;6681;53.254;10.398;2023-03-01T11:06:04;5.30;99.90
13231;DHT22;6681;53.254;10.398;2023-03-01T11:08:56;5.30;99.90
13231;DHT22;6681;53.254;10.398;2023-03-01T11:11:32;5.30;99.90
13231;DHT22;6681;53.254;10.398;2023-03-01T11:14:16;5.30;99.90
13231;DHT22;6681;53.254;10.398;2023-03-01T11:16:45;5.30;99.90
13231;DHT22;6681;53.254;10.398;2023-03-01T11:24:51;5.30;99.90
13231;DHT22;6681;53.254;10.398;2023-03-01T11:27:34;5.40;99.90
13231;DHT22;6681;53.254;10.398;2023-03-01T11:38:34;5.90;99.90
13231;DHT22;6681;53.254;10.398;2023-03-01T11:41:14;6.00;99.90
13231;DHT22;6681;53.254;10.398;2023-03-01T11:51:04;6.40;99.90
13231;DHT22;6681;53.254;10.398;2023-03-01T11:53:43;6.50;99.90
13231;DHT22;6681;53.254;10.398;2023-03-01T12:07:00;7.00;99.90
13231;DHT22;6681;53.254;10.398;2023-03-01T12:09:53;7.10;99.90
13231;DHT22;6681;53.254;10.398;2023-03-01T12:26:20;7.60;99.90
13231;DHT22;6681;53.254;10.398;2023-03-01T12:48:47;7.90;99.90
13231;DHT22;6681;53.254;10.398;2023-03-01T12:51:20;7.90;99.90
13231;DHT22;6681;53.254;10.398;2023-03-01T12:53:49;7.90;99.90
13231;DHT22;6681;53.254;10.398;2023-03-01T12:56:21;8.00;99.90
13231;DHT22;6681;53.254;10.398;2023-03-01T13:01:54;8.50;99.90
13231;DHT22;6681;53.254;10.398;2023-03-01T13:10:06;8.80;99.90
13231;DHT22;6681;53.254;10.398;2023-03-01T13:15:37;8.90;99.90
13231;DHT22;6681;53.254;10.398;2023-03-01T13:31:04;9.20;99.90
13231;DHT22;6681;53.254;10.398;2023-03-01T13:35:58;9.20;99.90
13231;DHT22;6681;53.254;10.398;2023-03-01T13:41:07;9.10;99.90
13231;DHT22;6681;53.254;10.398;2023-03-01T13:43:42;9.00;99.90
13231;DHT22;6681;53.254;10.398;2023-03-01T13:46:21;9.10;99.90
13231;DHT22;6681;53.254;10.398;2023-03-01T13:48:54;8.70;99.90
13231;DHT22;6681;53.254;10.398;2023-03-01T13:51:25;8.80;99.90
13231;DHT22;6681;53.254;10.398;2023-03-01T13:53:51;8.80;99.90
13231;DHT22;6681;53.254;10.398;2023-03-01T13:56:24;8.90;99.90
13231;DHT22;6681;53.254;10.398;2023-03-01T13:58:59;8.90;99.90
13231;DHT22;6681;53.254;10.398;2023-03-01T14:01:30;9.10;99.90
13231;DHT22;6681;53.254;10.398;2023-03-01T14:03:56;9.20;99.90
13231;DHT22;6681;53.254;10.398;2023-03-01T14:06:28;9.20;99.90
13231;DHT22;6681;53.254;10.398;2023-03-01T14:09:17;9.60;99.90
13231;DHT22;6681;53.254;10.398;2023-03-01T14:22:48;10.00;99.90
13231;DHT22;6681;53.254;10.398;2023-03-01T14:25:25;9.90;99.90
13231;DHT22;6681;53.254;10.398;2023-03-01T14:30:26;9.90;99.90
13231;DHT22;6681;53.254;10.398;2023-03-01T14:32:54;10.00;99.90
13231;DHT22;6681;53.254;10.398;2023-03-01T14:35:29;9.90;99.90
13231;DHT22;6681;53.254;10.398;2023-03-01T14:37:55;10.40;99.90
13231;DHT22;6681;53.254;10.398;2023-03-01T14:42:50;10.90;99.90
13231;DHT22;6681;53.254;10.398;2023-03-01T14:45:17;11.30;99.90
13231;DHT22;6681;53.254;10.398;2023-03-01T14:47:44;10.70;99.90
13231;DHT22;6681;53.254;10.398;2023-03-01T14:52:45;10.20;99.90
13231;DHT22;6681;53.254;10.398;2023-03-01T14:57:56;9.90;99.90
13231;DHT22;6681;53.254;10.398;2023-03-01T15:00:30;9.80;99.90
13231;DHT22;6681;53.254;10.398;2023-03-01T15:03:06;10.10;99.90
13231;DHT22;6681;53.254;10.398;2023-03-01T15:05:35;9.80;99.90
13231;DHT22;6681;53.254;10.398;2023-03-01T15:08:03;9.80;99.90
13231;DHT22;6681;53.254;10.398;2023-03-01T15:10:35;9.70;99.90
13231;DHT22;6681;53.254;10.398;2023-03-01T15:13:22;9.90;99.90
13231;DHT22;6681;53.254;10.398;2023-03-01T15:15:50;9.80;99.90
13231;DHT22;6681;53.254;10.398;2023-03-01T15:18:22;10.10;99.90
13231;DHT22;6681;53.254;10.398;2023-03-01T15:20:51;9.90;99.90
13231;DHT22;6681;53.254;10.398;2023-03-01T15:23:26;10.00;99.90
13231;DHT22;6681;53.254;10.398;2023-03-01T15:25:54;9.90;99.90
13231;DHT22;6681;53.254;10.398;2023-03-01T15:28:34;10.00;99.90
13231;DHT22;6681;53.254;10.398;2023-03-01T15:31:20;9.80;99.90
13231;DHT22;6681;53.254;10.398;2023-03-01T15:33:46;9.70;99.90
13231;DHT22;6681;53.254;10.398;2023-03-01T15:38:59;9.50;99.90
13231;DHT22;6681;53.254;10.398;2023-03-01T15:41:47;9.50;99.90
13231;DHT22;6681;53.254;10.398;2023-03-01T15:44:34;9.40;99.90
13231;DHT22;6681;53.254;10.398;2023-03-01T15:47:01;9.30;99.90
13231;DHT22;6681;53.254;10.398;2023-03-01T15:49:42;9.20;99.90
13231;DHT22;6681;53.254;10.398;2023-03-01T15:52:34;9.10;99.90
13231;DHT22;6681;53.254;10.398;2023-03-01T15:55:20;9.00;99.90
13231;DHT22;6681;53.254;10.398;2023-03-01T15:57:46;8.90;99.90
13231;DHT22;6681;53.254;10.398;2023-03-01T16:00:13;8.80;99.90
13231;DHT22;6681;53.254;10.398;2023-03-01T16:02:40;8.80;99.90
13231;DHT22;6681;53.254;10.398;2023-03-01T16:05:12;8.70;99.90
13231;DHT22;6681;53.254;10.398;2023-03-01T16:07:40;8.60;99.90
13231;DHT22;6681;53.254;10.398;2023-03-01T16:10:06;10.00;99.90
13231;DHT22;6681;53.254;10.398;2023-03-01T16:12:31;8.50;99.90
13231;DHT22;6681;53.254;10.398;2023-03-01T16:14:57;8.50;99.90
13231;DHT22;6681;53.254;10.398;2023-03-01T16:17:23;8.50;99.90
13231;DHT22;6681;53.254;10.398;2023-03-01T16:19:49;8.40;99.90
13231;DHT22;6681;53.254;10.398;2023-03-01T16:22:14;8.30;99.90
13231;DHT22;6681;53.254;10.398;2023-03-01T16:24:40;8.20;99.90
13231;DHT22;6681;53.254;10.398;2023-03-01T16:27:06;8.30;99.90
13231;DHT22;6681;53.254;10.398;2023-03-01T16:29:32;8.30;99.90
13231;DHT22;6681;53.254;10.398;2023-03-01T16:32:00;8.30;99.90
13231;DHT22;6681;53.254;10.398;2023-03-01T16:34:26;8.20;99.90
13231;DHT22;6681;53.254;10.398;2023-03-01T16:36:52;8.20;99.90
13231;DHT22;6681;53.254;10.398;2023-03-01T16:39:17;8.20;99.90
13231;DHT22;6681;53.254;10.398;2023-03-01T16:41:43;8.10;99.90
13231;DHT22;6681;53.254;10.398;2023-03-01T16:44:09;8.10;99.90
13231;DHT22;6681;53.254;10.398;2023-03-01T16:46:35;8.10;99.90
13231;DHT22;6681;53.254;10.398;2023-03-01T16:49:01;8.00;99.90
13231;DHT22;6681;53.254;10.398;2023-03-01T16:51:26;8.00;99.90
13231;DHT22;6681;53.254;10.398;2023-03-01T16:53:52;7.90;99.90
13231;DHT22;6681;53.254;10.398;2023-03-01T16:56:19;7.80;99.90
13231;DHT22;6681;53.254;10.398;2023-03-01T16:58:44;7.70;99.90
13231;DHT22;6681;53.254;10.398;2023-03-01T17:01:19;7.50;99.90
13231;DHT22;6681;53.254;10.398;2023-03-01T17:03:46;7.30;99.90
13231;DHT22;6681;53.254;10.398;2023-03-01T17:06:15;7.20;99.90
13231;DHT22;6681;53.254;10.398;2023-03-01T17:08:41;7.10;99.90
13231;DHT22;6681;53.254;10.398;2023-03-01T17:11:12;7.00;99.90
13231;DHT22;6681;53.254;10.398;2023-03-01T17:13:39;7.00;99.90
13231;DHT22;6681;53.254;10.398;2023-03-01T17:16:07;6.90;99.90
13231;DHT22;6681;53.254;10.398;2023-03-01T17:18:33;6.80;99.90
13231;DHT22;6681;53.254;10.398;2023-03-01T17:20:59;6.80;99.90
13231;DHT22;6681;53.254;10.398;2023-03-01T17:23:26;6.70;99.90
13231;DHT22;6681;53.254;10.398;2023-03-01T17:25:53;7.10;99.90
13231;DHT22;6681;53.254;10.398;2023-03-01T17:28:21;6.70;99.90
13231;DHT22;6681;53.254;10.398;2023-03-01T17:30:48;6.60;99.90
13231;DHT22;6681;53.254;10.398;2023-03-01T17:33:14;6.60;99.90
13231;DHT22;6681;53.254;10.398;2023-03-01T17:35:40;6.60;99.90
13231;DHT22;6681;53.254;10.398;2023-03-01T17:38:06;6.50;99.90
13231;DHT22;6681;53.254;10.398;2023-03-01T17:40:32;6.40;99.90
13231;DHT22;6681;53.254;10.398;2023-03-01T17:43:00;6.40;99.90
13231;DHT22;6681;53.254;10.398;2023-03-01T17:45:26;6.30;99.90
13231;DHT22;6681;53.254;10.398;2023-03-01T17:47:52;6.30;99.90
13231;DHT22;6681;53.254;10.398;2023-03-01T17:50:17;6.20;99.90
13231;DHT22;6681;53.254;10.398;2023-03-01T17:52:43;6.20;99.90
13231;DHT22;6681;53.254;10.398;2023-03-01T17:55:09;6.10;99.90
13231;DHT22;6681;53.254;10.398;2023-03-01T17:57:38;6.10;99.90
13231;DHT22;6681;53.254;10.398;2023-03-01T18:00:07;6.40;99.90
13231;DHT22;6681;53.254;10.398;2023-03-01T18:02:34;6.00;99.90
13231;DHT22;6681;53.254;10.398;2023-03-01T18:05:00;5.90;99.90
13231;DHT22;6681;53.254;10.398;2023-03-01T18:07:26;5.90;99.90
13231;DHT22;6681;53.254;10.398;2023-03-01T18:09:52;6.00;99.90
13231;DHT22;6681;53.254;10.398;2023-03-01T18:12:21;5.70;99.90
13231;DHT22;6681;53.254;10.398;2023-03-01T18:14:48;5.70;99.90
13231;DHT22;6681;53.254;10.398;2023-03-01T18:17:18;5.30;99.90
13231;DHT22;6681;53.254;10.398;2023-03-01T18:19:44;5.50;99.90
13231;DHT22;6681;53.254;10.398;2023-03-01T18:22:10;5.50;99.90